createdAt,value
2023-04-25T00:01:05.866Z,19.90
2023-04-25T00:03:33.485Z,19.90
2023-04-25T00:06:03.003Z,20.10
2023-04-25T00:08:33.019Z,20.00
2023-04-25T00:11:00.245Z,19.80
2023-04-25T00:13:27.625Z,19.90
2023-04-25T00:15:54.472Z,19.80
2023-04-25T00:18:21.322Z,20.00
2023-04-25T00:20:48.285Z,19.90
2023-04-25T00:23:18.670Z,19.90
2023-04-25T00:25:50.759Z,20.00
2023-04-25T00:28:17.572Z,19.90
2023-04-25T00:30:44.655Z,19.80
2023-04-25T00:33:11.433Z,19.90
2023-04-25T00:35:39.247Z,19.90
2023-04-25T00:38:06.040Z,19.80
2023-04-25T00:40:32.943Z,19.90
2023-04-25T00:42:59.794Z,19.90
2023-04-25T00:45:30.321Z,19.90
2023-04-25T00:47:57.799Z,19.90
2023-04-25T00:50:25.628Z,19.90
2023-04-25T00:52:52.798Z,19.90
2023-04-25T00:55:20.518Z,19.80
2023-04-25T00:57:47.777Z,19.90
2023-04-25T01:00:15.686Z,19.80
2023-04-25T01:02:45.838Z,19.90
2023-04-25T01:05:13.147Z,19.90
2023-04-25T01:07:40.121Z,19.90
2023-04-25T01:10:07.523Z,19.90
2023-04-25T01:12:34.734Z,19.80
2023-04-25T01:15:01.728Z,19.80
2023-04-25T01:17:30.148Z,19.80
2023-04-25T01:19:57.228Z,19.80
2023-04-25T01:22:24.278Z,19.90
2023-04-25T01:24:51.056Z,19.80
2023-04-25T01:27:18.858Z,19.90
2023-04-25T01:29:45.821Z,20.00
2023-04-25T01:32:13.011Z,19.80
2023-04-25T01:34:39.899Z,19.70
2023-04-25T01:37:06.647Z,19.70
2023-04-25T01:39:33.407Z,19.80
2023-04-25T01:42:00.766Z,19.80
2023-04-25T01:44:27.668Z,19.80
2023-04-25T01:46:55.453Z,19.70
2023-04-25T01:49:22.192Z,19.70
2023-04-25T01:51:49.224Z,19.70
2023-04-25T01:54:16.071Z,19.70
2023-04-25T01:56:42.797Z,19.70
2023-04-25T01:59:09.752Z,19.70
2023-04-25T02:01:36.561Z,19.70
2023-04-25T02:04:03.536Z,19.70
2023-04-25T02:06:31.777Z,19.70
2023-04-25T02:08:58.471Z,19.70
2023-04-25T02:11:25.235Z,19.60
2023-04-25T02:13:52.170Z,19.60
2023-04-25T02:16:20.084Z,19.60
2023-04-25T02:18:47.842Z,19.60
2023-04-25T02:21:14.521Z,19.60
2023-04-25T02:23:41.410Z,19.70
2023-04-25T02:26:09.392Z,19.70
2023-04-25T02:28:36.049Z,19.60
2023-04-25T02:31:02.793Z,19.60
2023-04-25T02:33:29.515Z,19.60
2023-04-25T02:35:56.520Z,19.70
2023-04-25T02:38:23.209Z,19.60
2023-04-25T02:40:49.941Z,19.60
2023-04-25T02:43:17.032Z,19.60
2023-04-25T02:45:43.765Z,19.60
2023-04-25T02:48:10.482Z,19.60
2023-04-25T02:50:37.245Z,19.50
2023-04-25T02:53:04.023Z,19.50
2023-04-25T02:55:30.798Z,19.60
2023-04-25T02:57:57.514Z,19.50
2023-04-25T03:00:24.351Z,19.50
2023-04-25T03:02:51.925Z,19.50
2023-04-25T03:05:18.950Z,19.50
2023-04-25T03:07:46.499Z,19.50
2023-04-25T03:10:13.588Z,19.50
2023-04-25T03:12:40.461Z,19.50
2023-04-25T03:15:07.464Z,19.50
2023-04-25T03:17:34.264Z,19.50
2023-04-25T03:20:01.450Z,19.40
2023-04-25T03:22:28.179Z,19.40
2023-04-25T03:24:54.828Z,19.20
2023-04-25T03:27:21.635Z,19.40
2023-04-25T03:29:48.274Z,19.50
2023-04-25T03:32:15.088Z,19.50
2023-04-25T03:34:42.202Z,19.50
2023-04-25T03:37:09.014Z,19.50
2023-04-25T03:39:36.125Z,19.50
2023-04-25T03:42:03.985Z,19.50
2023-04-25T03:44:30.728Z,19.40
2023-04-25T03:46:57.628Z,19.50
2023-04-25T03:49:24.324Z,19.40
2023-04-25T03:51:51.121Z,19.40
2023-04-25T03:54:17.812Z,19.40
2023-04-25T03:56:44.555Z,19.40
2023-04-25T03:59:11.220Z,19.30
2023-04-25T04:01:37.947Z,19.40
2023-04-25T04:04:05.000Z,19.40
2023-04-25T04:06:32.214Z,19.40
2023-04-25T04:08:58.961Z,19.40
2023-04-25T04:11:25.668Z,19.30
2023-04-25T04:13:52.535Z,19.40
2023-04-25T04:16:19.817Z,19.50
2023-04-25T04:18:46.902Z,19.40
2023-04-25T04:21:13.588Z,19.30
2023-04-25T04:23:40.636Z,19.50
2023-04-25T04:26:08.445Z,19.40
2023-04-25T04:28:36.750Z,19.30
2023-04-25T04:31:03.846Z,19.30
2023-04-25T04:33:32.082Z,19.40
2023-04-25T04:35:58.893Z,19.30
2023-04-25T04:38:26.349Z,19.30
2023-04-25T04:40:53.537Z,19.40
2023-04-25T04:43:20.310Z,19.30
2023-04-25T04:45:46.985Z,19.30
2023-04-25T04:48:14.960Z,19.30
2023-04-25T04:50:43.660Z,19.30
2023-04-25T04:53:10.330Z,19.30
2023-04-25T04:55:37.061Z,19.30
2023-04-25T04:58:03.763Z,19.30
2023-04-25T05:00:30.745Z,19.30
2023-04-25T05:02:57.859Z,19.30
2023-04-25T05:05:24.854Z,19.30
2023-04-25T05:07:51.877Z,19.70
2023-04-25T05:10:19.716Z,19.30
2023-04-25T05:12:46.650Z,19.30
2023-04-25T05:15:13.375Z,19.20
2023-04-25T05:17:40.561Z,19.20
2023-04-25T05:20:10.531Z,19.40
2023-04-25T05:22:42.466Z,19.40
2023-04-25T05:25:10.548Z,19.40
2023-04-25T05:27:37.340Z,19.50
2023-04-25T05:30:04.580Z,19.50
2023-04-25T05:32:31.368Z,19.50
2023-04-25T05:34:58.173Z,19.60
2023-04-25T05:37:25.233Z,19.60
2023-04-25T05:39:51.968Z,19.70
2023-04-25T05:42:18.665Z,19.60
2023-04-25T05:44:45.805Z,19.60
2023-04-25T05:47:12.470Z,19.70
2023-04-25T05:49:39.178Z,19.60
2023-04-25T05:52:06.045Z,19.70
2023-04-25T05:54:32.738Z,19.70
2023-04-25T05:56:59.757Z,19.70
2023-04-25T05:59:27.018Z,19.80
2023-04-25T06:01:55.465Z,19.80
2023-04-25T06:04:22.932Z,19.90
2023-04-25T06:06:50.127Z,20.00
2023-04-25T06:09:17.281Z,20.10
2023-04-25T06:11:44.439Z,20.00
2023-04-25T06:14:11.195Z,20.00
2023-04-25T06:16:38.249Z,20.10
2023-04-25T06:19:05.010Z,20.10
2023-04-25T06:21:32.501Z,20.10
2023-04-25T06:23:59.133Z,20.10
2023-04-25T06:26:25.825Z,20.20
2023-04-25T06:28:52.554Z,20.20
2023-04-25T06:31:19.318Z,20.20
2023-04-25T06:33:46.093Z,20.20
2023-04-25T06:36:12.861Z,20.20
2023-04-25T06:38:39.539Z,20.00
2023-04-25T06:41:06.383Z,20.10
2023-04-25T06:43:34.377Z,20.00
2023-04-25T06:46:01.706Z,20.00
2023-04-25T06:48:28.607Z,20.00
2023-04-25T06:50:55.550Z,19.90
2023-04-25T06:53:22.238Z,20.00
2023-04-25T06:55:48.896Z,20.00
2023-04-25T06:58:15.578Z,20.00
2023-04-25T07:00:42.916Z,19.90
2023-04-25T07:03:09.892Z,20.00
2023-04-25T07:05:36.780Z,19.90
2023-04-25T07:08:03.986Z,20.00
2023-04-25T07:10:30.905Z,20.00
2023-04-25T07:12:57.630Z,19.90
2023-04-25T07:15:24.428Z,20.00
2023-04-25T07:17:51.226Z,19.90
2023-04-25T07:20:17.985Z,19.90
2023-04-25T07:22:45.038Z,20.00
2023-04-25T07:25:12.026Z,20.00
2023-04-25T07:27:38.856Z,20.00
2023-04-25T07:30:06.497Z,20.10
2023-04-25T07:32:33.192Z,20.10
2023-04-25T07:34:59.935Z,20.20
2023-04-25T07:37:27.135Z,20.10
2023-04-25T07:39:53.896Z,20.10
2023-04-25T07:42:20.579Z,20.30
2023-04-25T07:44:48.206Z,20.20
2023-04-25T07:47:15.066Z,20.10
2023-04-25T07:49:41.995Z,20.10
2023-04-25T07:52:08.783Z,20.00
2023-04-25T07:54:35.807Z,19.90
2023-04-25T07:57:03.402Z,19.80
2023-04-25T07:59:30.542Z,19.80
2023-04-25T08:01:58.308Z,19.80
2023-04-25T08:04:26.193Z,19.70
2023-04-25T08:06:54.596Z,19.70
2023-04-25T08:09:21.819Z,19.70
2023-04-25T08:11:48.790Z,19.70
2023-04-25T08:14:15.495Z,19.60
2023-04-25T08:16:43.042Z,19.70
2023-04-25T08:19:10.847Z,19.70
2023-04-25T08:21:37.743Z,19.60
2023-04-25T08:24:04.942Z,19.70
2023-04-25T08:26:31.753Z,19.60
2023-04-25T08:28:58.415Z,19.70
2023-04-25T08:31:25.195Z,19.70
2023-04-25T08:33:52.927Z,19.60
2023-04-25T08:36:31.460Z,19.70
2023-04-25T08:39:05.036Z,19.60
2023-04-25T08:41:31.981Z,19.60
2023-04-25T08:44:01.438Z,19.80
2023-04-25T08:46:28.765Z,19.60
2023-04-25T08:49:01.066Z,19.60
2023-04-25T08:51:32.700Z,19.70
2023-04-25T08:54:16.312Z,19.50
2023-04-25T08:56:58.973Z,19.60
2023-04-25T08:59:25.832Z,19.60
2023-04-25T09:01:52.750Z,19.60
2023-04-25T09:04:21.279Z,19.60
2023-04-25T09:06:48.722Z,19.50
2023-04-25T09:09:15.846Z,19.80
2023-04-25T09:11:42.583Z,19.50
2023-04-25T09:14:15.727Z,19.50
2023-04-25T09:16:58.734Z,19.50
2023-04-25T09:19:39.620Z,19.50
2023-04-25T09:22:08.747Z,19.50
2023-04-25T09:24:41.026Z,19.50
2023-04-25T09:27:10.729Z,19.60
2023-04-25T09:29:39.619Z,19.40
2023-04-25T09:32:16.491Z,19.40
2023-04-25T09:34:45.048Z,19.50
2023-04-25T09:37:12.875Z,19.60
2023-04-25T09:39:40.005Z,19.50
2023-04-25T09:42:07.046Z,19.60
2023-04-25T09:44:33.812Z,19.60
2023-04-25T09:47:00.585Z,19.60
2023-04-25T09:49:28.636Z,19.50
2023-04-25T09:51:59.645Z,19.60
2023-04-25T09:54:26.899Z,19.60
2023-04-25T09:56:54.663Z,19.50
2023-04-25T09:59:23.669Z,19.50
2023-04-25T10:01:53.586Z,19.50
2023-04-25T10:04:27.297Z,19.60
2023-04-25T10:06:57.021Z,19.50
2023-04-25T10:09:26.885Z,19.50
2023-04-25T10:11:54.688Z,19.50
2023-04-25T10:14:21.947Z,19.50
2023-04-25T10:16:49.486Z,19.50
2023-04-25T10:19:17.164Z,19.40
2023-04-25T10:21:57.762Z,19.50
2023-04-25T10:24:25.526Z,19.50
2023-04-25T10:26:52.653Z,19.50
2023-04-25T10:29:26.882Z,19.50
2023-04-25T10:31:53.779Z,19.50
2023-04-25T10:34:24.432Z,19.40
2023-04-25T10:36:56.504Z,19.50
2023-04-25T10:39:25.371Z,19.50
2023-04-25T10:41:57.812Z,19.50
2023-04-25T10:44:28.315Z,19.50
2023-04-25T10:46:57.785Z,19.40
2023-04-25T10:49:35.363Z,19.70
2023-04-25T10:52:17.212Z,19.50
2023-04-25T10:54:48.401Z,19.50
2023-04-25T10:57:31.052Z,19.50
2023-04-25T11:00:25.862Z,19.40
2023-04-25T11:03:01.066Z,19.40
2023-04-25T11:05:41.064Z,19.50
2023-04-25T11:08:19.104Z,19.50
2023-04-25T11:10:46.059Z,19.40
2023-04-25T11:13:12.662Z,19.50
2023-04-25T11:15:39.347Z,19.40
2023-04-25T11:18:06.257Z,19.40
2023-04-25T11:20:32.941Z,19.60
2023-04-25T11:25:35.552Z,19.50
2023-04-25T11:28:05.195Z,19.50
2023-04-25T11:30:31.913Z,19.40
2023-04-25T11:32:58.767Z,19.50
2023-04-25T11:35:26.646Z,19.40
2023-04-25T11:37:53.670Z,19.70
2023-04-25T11:40:20.562Z,19.40
2023-04-25T11:42:48.194Z,19.40
2023-04-25T11:45:16.228Z,19.20
2023-04-25T11:47:43.098Z,19.50
2023-04-25T11:50:10.765Z,19.30
2023-04-25T11:52:46.099Z,19.40
2023-04-25T11:55:18.155Z,19.40
2023-04-25T11:57:46.880Z,19.50
2023-04-25T12:00:19.423Z,19.40
2023-04-25T12:02:48.980Z,19.30
2023-04-25T12:05:30.952Z,19.40
2023-04-25T12:07:59.179Z,19.40
2023-04-25T12:10:26.820Z,19.40
2023-04-25T12:12:53.716Z,19.60
2023-04-25T12:15:25.329Z,19.30
2023-04-25T12:17:52.979Z,19.50
2023-04-25T12:20:22.076Z,19.30
2023-04-25T12:22:49.714Z,19.40
2023-04-25T12:25:39.137Z,19.40
2023-04-25T12:28:13.029Z,19.40
2023-04-25T12:30:59.482Z,19.40
2023-04-25T12:33:27.797Z,19.50
2023-04-25T12:35:55.326Z,19.30
2023-04-25T12:38:27.366Z,19.40
2023-04-25T12:40:54.985Z,19.40
2023-04-25T12:43:22.652Z,19.40
2023-04-25T12:45:54.058Z,19.40
2023-04-25T12:48:21.514Z,19.30
2023-04-25T12:50:52.730Z,19.50
2023-04-25T12:53:21.477Z,19.30
2023-04-25T12:55:49.031Z,19.40
2023-04-25T12:58:20.013Z,19.40
2023-04-25T13:00:47.284Z,19.40
2023-04-25T13:03:14.228Z,19.40
2023-04-25T13:05:41.313Z,19.30
2023-04-25T13:08:08.271Z,19.30
2023-04-25T13:10:35.074Z,19.30
2023-04-25T13:13:02.266Z,19.40
2023-04-25T13:15:29.654Z,19.30
2023-04-25T13:17:57.016Z,19.50
2023-04-25T13:20:24.035Z,19.30
2023-04-25T13:22:50.795Z,19.30
2023-04-25T13:25:17.633Z,19.40
2023-04-25T13:27:45.643Z,19.40
2023-04-25T13:30:12.874Z,19.30
2023-04-25T13:32:39.984Z,19.40
2023-04-25T13:35:13.642Z,19.30
2023-04-25T13:37:40.821Z,19.40
2023-04-25T13:40:10.880Z,19.40
2023-04-25T13:42:39.162Z,19.30
2023-04-25T13:45:06.477Z,19.40
2023-04-25T13:47:33.237Z,19.40
2023-04-25T13:50:00.365Z,19.50
2023-04-25T13:52:27.119Z,19.60
2023-04-25T13:54:53.847Z,19.40
2023-04-25T13:57:20.674Z,19.30
2023-04-25T13:59:47.659Z,19.40
2023-04-25T14:02:14.559Z,19.40
2023-04-25T14:04:42.061Z,19.30
2023-04-25T14:07:09.353Z,19.40
2023-04-25T14:09:36.152Z,19.70
2023-04-25T14:12:03.204Z,19.40
2023-04-25T14:14:29.972Z,19.30
2023-04-25T14:16:58.014Z,19.30
2023-04-25T14:19:25.565Z,19.40
2023-04-25T14:21:52.325Z,19.40
2023-04-25T14:24:19.032Z,19.30
2023-04-25T14:26:45.778Z,19.40
2023-04-25T14:29:13.128Z,19.30
2023-04-25T14:31:44.007Z,19.30
2023-04-25T14:34:11.479Z,19.40
2023-04-25T14:36:38.213Z,19.20
2023-04-25T14:39:06.133Z,19.20
2023-04-25T14:41:33.129Z,19.40
2023-04-25T14:43:59.793Z,19.30
2023-04-25T14:46:27.053Z,19.40
2023-04-25T14:48:54.247Z,19.50
2023-04-25T14:51:21.071Z,19.50
2023-04-25T14:53:47.825Z,19.50
2023-04-25T14:56:14.525Z,19.60
2023-04-25T14:58:41.580Z,19.60
2023-04-25T15:01:09.117Z,19.60
2023-04-25T15:03:36.340Z,19.60
2023-04-25T15:06:03.209Z,19.40
2023-04-25T15:08:29.944Z,19.50
2023-04-25T15:10:56.854Z,19.70
2023-04-25T15:13:23.558Z,19.80
2023-04-25T15:15:52.203Z,19.70
2023-04-25T15:18:22.854Z,19.60
2023-04-25T15:20:50.899Z,19.70
2023-04-25T15:23:18.838Z,19.80
2023-04-25T15:25:45.982Z,19.70
2023-04-25T15:28:14.733Z,19.80
2023-04-25T15:30:41.409Z,19.60
2023-04-25T15:33:08.194Z,19.60
2023-04-25T15:35:34.872Z,19.60
2023-04-25T15:38:01.632Z,19.70
2023-04-25T15:40:28.419Z,19.60
2023-04-25T15:42:55.236Z,19.60
2023-04-25T15:45:25.902Z,19.60
2023-04-25T15:47:53.682Z,19.60
2023-04-25T15:50:20.436Z,19.60
2023-04-25T15:52:49.388Z,19.60
2023-04-25T15:55:17.345Z,19.50
2023-04-25T15:57:44.504Z,19.60
2023-04-25T16:00:15.449Z,19.60
2023-04-25T16:02:43.744Z,19.60
2023-04-25T16:05:12.956Z,19.60
2023-04-25T16:07:41.576Z,19.50
2023-04-25T16:10:09.673Z,19.50
2023-04-25T16:12:37.024Z,19.50
2023-04-25T16:15:04.756Z,19.50
2023-04-25T16:17:33.210Z,19.50
2023-04-25T16:20:02.962Z,19.60
2023-04-25T16:22:29.602Z,19.50
2023-04-25T16:24:56.211Z,19.50
2023-04-25T16:27:22.974Z,19.40
2023-04-25T16:29:51.312Z,19.60
2023-04-25T16:32:18.023Z,19.50
2023-04-25T16:34:45.260Z,19.60
2023-04-25T16:37:11.908Z,19.50
2023-04-25T16:39:38.554Z,19.40
2023-04-25T16:42:06.125Z,19.40
2023-04-25T16:44:32.873Z,19.40
2023-04-25T16:46:59.734Z,19.40
2023-04-25T16:49:26.858Z,19.50
2023-04-25T16:51:53.659Z,19.40
2023-04-25T16:54:20.799Z,19.40
2023-04-25T16:56:47.482Z,19.50
2023-04-25T16:59:14.109Z,19.30
2023-04-25T17:01:40.752Z,19.60
2023-04-25T17:04:07.748Z,19.40
2023-04-25T17:06:35.075Z,19.50
2023-04-25T17:09:01.807Z,19.60
2023-04-25T17:11:28.614Z,19.50
2023-04-25T17:13:55.313Z,19.50
2023-04-25T17:16:25.189Z,19.60
2023-04-25T17:18:52.361Z,19.60
2023-04-25T17:21:19.770Z,19.50
2023-04-25T17:23:46.515Z,19.50
2023-04-25T17:26:13.607Z,19.50
2023-04-25T17:28:41.922Z,19.50
2023-04-25T17:31:09.625Z,19.50
2023-04-25T17:33:36.471Z,19.50
2023-04-25T17:36:04.071Z,19.50
2023-04-25T17:38:31.576Z,19.40
2023-04-25T17:40:58.847Z,19.50
2023-04-25T17:43:27.581Z,19.50
2023-04-25T17:45:54.601Z,19.40
2023-04-25T17:48:24.881Z,19.50
2023-04-25T17:51:10.606Z,19.50
2023-04-25T17:53:56.458Z,19.40
2023-04-25T17:56:41.784Z,19.40
2023-04-25T17:59:27.979Z,19.40
2023-04-25T18:02:13.369Z,19.30
2023-04-25T18:04:58.741Z,19.40
2023-04-25T18:07:25.419Z,19.40
2023-04-25T18:09:52.204Z,19.50
2023-04-25T18:12:18.995Z,19.30
2023-04-25T18:14:45.977Z,19.40
2023-04-25T18:17:14.221Z,19.60
2023-04-25T18:19:41.037Z,19.50
2023-04-25T18:22:07.705Z,19.40
2023-04-25T18:24:34.351Z,19.30
2023-04-25T18:27:02.603Z,19.40
2023-04-25T18:29:33.739Z,19.40
2023-04-25T18:32:01.411Z,19.50
2023-04-25T18:34:28.139Z,19.40
2023-04-25T18:36:56.270Z,19.40
2023-04-25T18:39:24.434Z,19.40
2023-04-25T18:41:55.093Z,19.50
2023-04-25T18:44:25.320Z,19.50
2023-04-25T18:46:52.568Z,19.50
2023-04-25T18:49:19.259Z,19.50
2023-04-25T18:51:46.283Z,19.80
2023-04-25T18:54:12.938Z,19.50
2023-04-25T18:56:39.531Z,19.60
2023-04-25T18:59:06.592Z,19.50
2023-04-25T19:01:33.773Z,19.60
2023-04-25T19:04:03.634Z,19.60
2023-04-25T19:06:32.711Z,19.60
2023-04-25T19:08:59.330Z,19.60
2023-04-25T19:11:26.297Z,19.50
2023-04-25T19:13:55.565Z,19.60
2023-04-25T19:16:22.613Z,19.40
2023-04-25T19:18:51.921Z,19.50
2023-04-25T19:21:18.949Z,19.50
2023-04-25T19:23:46.277Z,19.40
2023-04-25T19:26:13.125Z,19.40
2023-04-25T19:28:39.928Z,19.40
2023-04-25T19:31:07.214Z,19.30
2023-04-25T19:33:34.016Z,19.40
2023-04-25T19:36:00.720Z,19.30
2023-04-25T19:38:27.703Z,19.30
2023-04-25T19:40:54.343Z,19.40
2023-04-25T19:43:21.107Z,19.30
2023-04-25T19:45:47.921Z,19.30
2023-04-25T19:48:15.355Z,19.30
2023-04-25T19:50:42.154Z,19.30
2023-04-25T19:53:09.661Z,19.30
2023-04-25T19:55:36.460Z,19.20
2023-04-25T19:58:06.680Z,19.30
2023-04-25T20:00:33.394Z,19.30
2023-04-25T20:03:01.179Z,19.20
2023-04-25T20:05:28.223Z,19.20
2023-04-25T20:07:54.957Z,19.30
2023-04-25T20:10:21.823Z,19.20
2023-04-25T20:12:48.707Z,19.20
2023-04-25T20:15:17.915Z,19.10
2023-04-25T20:17:44.698Z,19.20
2023-04-25T20:20:12.432Z,19.20
2023-04-25T20:22:40.553Z,19.10
2023-04-25T20:25:09.814Z,19.10
2023-04-25T20:27:39.711Z,19.30
2023-04-25T20:30:08.124Z,19.10
2023-04-25T20:32:36.264Z,19.10
2023-04-25T20:35:04.472Z,19.10
2023-04-25T20:37:31.743Z,19.10
2023-04-25T20:39:59.499Z,19.10
2023-04-25T20:42:26.413Z,19.10
2023-04-25T20:44:53.448Z,19.10
2023-04-25T20:47:20.391Z,19.10
2023-04-25T20:49:47.245Z,19.10
2023-04-25T20:52:14.025Z,19.10
2023-04-25T20:54:41.580Z,19.10
2023-04-25T20:57:08.349Z,19.10
2023-04-25T20:59:35.562Z,19.10
2023-04-25T21:02:02.789Z,19.10
2023-04-25T21:04:29.914Z,19.20
2023-04-25T21:06:56.772Z,19.10
2023-04-25T21:09:23.502Z,19.10
2023-04-25T21:11:51.028Z,19.10
2023-04-25T21:14:18.493Z,19.10
2023-04-25T21:16:46.154Z,19.00
2023-04-25T21:19:13.023Z,19.10
2023-04-25T21:21:39.795Z,19.10
2023-04-25T21:24:06.785Z,19.10
2023-04-25T21:26:33.478Z,19.10
2023-04-25T21:29:00.265Z,19.10
2023-04-25T21:31:27.203Z,19.10
2023-04-25T21:33:53.942Z,19.00
2023-04-25T21:36:20.731Z,19.00
2023-04-25T21:38:48.021Z,19.10
2023-04-25T21:41:14.929Z,19.10
2023-04-25T21:43:41.748Z,19.00
2023-04-25T21:46:21.355Z,19.00
2023-04-25T21:48:49.803Z,19.10
2023-04-25T21:51:17.747Z,19.00
2023-04-25T21:53:44.548Z,19.10
2023-04-25T21:56:12.276Z,19.00
2023-04-25T21:58:39.036Z,19.20
2023-04-25T22:01:05.892Z,19.20
2023-04-25T22:03:33.467Z,19.30
2023-04-25T22:06:00.375Z,19.40
2023-04-25T22:08:27.208Z,19.40
2023-04-25T22:10:55.167Z,19.40
2023-04-25T22:13:22.749Z,19.30
2023-04-25T22:15:49.735Z,19.30
2023-04-25T22:18:16.545Z,19.30
2023-04-25T22:20:44.255Z,19.20
2023-04-25T22:23:12.113Z,19.20
2023-04-25T22:25:40.405Z,19.20
2023-04-25T22:28:07.171Z,19.30
2023-04-25T22:30:34.994Z,19.10
2023-04-25T22:33:01.794Z,19.10
2023-04-25T22:35:28.560Z,19.00
2023-04-25T22:37:55.275Z,19.10
2023-04-25T22:40:22.123Z,19.10
2023-04-25T22:42:48.934Z,19.10
2023-04-25T22:45:16.007Z,19.00
2023-04-25T22:47:43.167Z,19.10
2023-04-25T22:50:13.867Z,19.10
2023-04-25T22:52:42.350Z,19.00
2023-04-25T22:55:10.798Z,19.10
2023-04-25T22:57:40.774Z,19.10
2023-04-25T23:00:15.740Z,19.00
2023-04-25T23:02:45.947Z,19.00
2023-04-25T23:05:13.801Z,19.00
2023-04-25T23:07:40.968Z,18.90
2023-04-25T23:10:08.662Z,19.00
2023-04-25T23:12:35.532Z,19.00
2023-04-25T23:15:05.128Z,19.00
2023-04-25T23:17:33.290Z,19.00
2023-04-25T23:20:00.204Z,19.00
2023-04-25T23:22:26.985Z,19.00
2023-04-25T23:24:53.709Z,19.00
2023-04-25T23:27:20.822Z,19.00
2023-04-25T23:29:54.676Z,19.00
2023-04-25T23:32:22.278Z,18.90
2023-04-25T23:34:49.217Z,18.90
2023-04-25T23:37:16.017Z,19.10
2023-04-25T23:39:50.957Z,19.00
2023-04-25T23:42:18.817Z,18.90
2023-04-25T23:44:45.733Z,18.90
2023-04-25T23:47:13.923Z,19.00
2023-04-25T23:49:41.064Z,18.90
2023-04-25T23:52:07.852Z,19.00
2023-04-25T23:54:34.564Z,18.80
2023-04-25T23:57:01.567Z,19.10
2023-04-25T23:59:28.667Z,18.90
